sensor_id;sensor_type;location;lat;lon;timestamp;pressure;altitude;pressure_sealevel;temperature;humidity
55540;BME280;41384;51.418;7.286;2023-02-20T00:00:21;100836.63;;;6.37;100.00
55540;BME280;41384;51.418;7.286;2023-02-20T00:02:47;100836.69;;;6.46;100.00
55540;BME280;41384;51.418;7.286;2023-02-20T00:05:13;100838.88;;;6.50;100.00
55540;BME280;41384;51.418;7.286;2023-02-20T00:07:39;100844.59;;;6.54;100.00
55540;BME280;41384;51.418;7.286;2023-02-20T00:10:04;100832.63;;;6.51;100.00
55540;BME280;41384;51.418;7.286;2023-02-20T00:12:30;100828.72;;;6.29;100.00
55540;BME280;41384;51.418;7.286;2023-02-20T00:14:57;100825.75;;;6.50;100.00
55540;BME280;41384;51.418;7.286;2023-02-20T00:17:22;100813.78;;;6.56;100.00
55540;BME280;41384;51.418;7.286;2023-02-20T00:19:47;100815.56;;;6.47;100.00
55540;BME280;41384;51.418;7.286;2023-02-20T00:22:12;100811.44;;;6.45;100.00
55540;BME280;41384;51.418;7.286;2023-02-20T00:24:38;100812.16;;;6.55;100.00
55540;BME280;41384;51.418;7.286;2023-02-20T00:27:03;100801.97;;;6.52;100.00
55540;BME280;41384;51.418;7.286;2023-02-20T00:29:28;100799.59;;;6.67;100.00
55540;BME280;41384;51.418;7.286;2023-02-20T00:31:55;100802.28;;;6.49;100.00
55540;BME280;41384;51.418;7.286;2023-02-20T00:34:24;100787.88;;;6.53;100.00
55540;BME280;41384;51.418;7.286;2023-02-20T00:36:50;100796.91;;;6.50;100.00
55540;BME280;41384;51.418;7.286;2023-02-20T00:39:15;100798.13;;;6.38;100.00
55540;BME280;41384;51.418;7.286;2023-02-20T00:41:41;100795.44;;;6.56;100.00
55540;BME280;41384;51.418;7.286;2023-02-20T00:44:06;100787.78;;;6.63;100.00
55540;BME280;41384;51.418;7.286;2023-02-20T00:46:31;100800.19;;;6.52;100.00
55540;BME280;41384;51.418;7.286;2023-02-20T00:48:57;100783.47;;;6.53;100.00
55540;BME280;41384;51.418;7.286;2023-02-20T00:51:22;100786.22;;;6.52;100.00
55540;BME280;41384;51.418;7.286;2023-02-20T00:53:47;100779.69;;;6.56;100.00
55540;BME280;41384;51.418;7.286;2023-02-20T00:56:13;100780.31;;;6.50;100.00
55540;BME280;41384;51.418;7.286;2023-02-20T00:58:38;100791.47;;;6.52;100.00
55540;BME280;41384;51.418;7.286;2023-02-20T01:01:03;100774.53;;;6.64;100.00
55540;BME280;41384;51.418;7.286;2023-02-20T01:03:28;100780.97;;;6.52;100.00
55540;BME280;41384;51.418;7.286;2023-02-20T01:05:54;100777.75;;;6.58;100.00
55540;BME280;41384;51.418;7.286;2023-02-20T01:08:19;100767.31;;;6.66;100.00
55540;BME280;41384;51.418;7.286;2023-02-20T01:10:44;100756.41;;;6.53;100.00
55540;BME280;41384;51.418;7.286;2023-02-20T01:13:10;100762.63;;;6.52;100.00
55540;BME280;41384;51.418;7.286;2023-02-20T01:15:35;100747.56;;;6.54;100.00
55540;BME280;41384;51.418;7.286;2023-02-20T01:18:01;100724.78;;;6.54;100.00
55540;BME280;41384;51.418;7.286;2023-02-20T01:20:26;100722.72;;;6.66;100.00
55540;BME280;41384;51.418;7.286;2023-02-20T01:22:51;100728.00;;;6.75;100.00
55540;BME280;41384;51.418;7.286;2023-02-20T01:25:17;100729.94;;;6.72;100.00
55540;BME280;41384;51.418;7.286;2023-02-20T01:27:42;100739.25;;;6.67;100.00
55540;BME280;41384;51.418;7.286;2023-02-20T01:30:08;100733.06;;;6.76;100.00
55540;BME280;41384;51.418;7.286;2023-02-20T01:32:33;100717.81;;;6.71;100.00
55540;BME280;41384;51.418;7.286;2023-02-20T01:34:59;100719.22;;;6.57;100.00
55540;BME280;41384;51.418;7.286;2023-02-20T01:37:24;100724.50;;;6.66;100.00
55540;BME280;41384;51.418;7.286;2023-02-20T01:39:49;100718.59;;;6.64;100.00
55540;BME280;41384;51.418;7.286;2023-02-20T01:42:21;100713.03;;;6.67;100.00
55540;BME280;41384;51.418;7.286;2023-02-20T01:44:47;100723.75;;;6.82;100.00
55540;BME280;41384;51.418;7.286;2023-02-20T01:47:18;100715.81;;;6.65;100.00
55540;BME280;41384;51.418;7.286;2023-02-20T01:49:53;100703.88;;;6.79;100.00
55540;BME280;41384;51.418;7.286;2023-02-20T01:52:38;100703.22;;;6.77;100.00
55540;BME280;41384;51.418;7.286;2023-02-20T01:55:18;100706.34;;;6.72;100.00
55540;BME280;41384;51.418;7.286;2023-02-20T01:57:52;100699.63;;;6.78;100.00
55540;BME280;41384;51.418;7.286;2023-02-20T02:00:20;100698.94;;;6.68;100.00
55540;BME280;41384;51.418;7.286;2023-02-20T02:02:51;100698.59;;;6.63;100.00
55540;BME280;41384;51.418;7.286;2023-02-20T02:05:19;100695.34;;;6.77;100.00
55540;BME280;41384;51.418;7.286;2023-02-20T02:07:46;100692.25;;;6.74;100.00
55540;BME280;41384;51.418;7.286;2023-02-20T02:10:13;100698.81;;;6.78;100.00
55540;BME280;41384;51.418;7.286;2023-02-20T02:12:41;100686.44;;;6.62;100.00
55540;BME280;41384;51.418;7.286;2023-02-20T02:15:14;100692.56;;;6.70;100.00
55540;BME280;41384;51.418;7.286;2023-02-20T02:18:04;100681.53;;;6.67;100.00
55540;BME280;41384;51.418;7.286;2023-02-20T02:20:52;100678.13;;;6.66;100.00
55540;BME280;41384;51.418;7.286;2023-02-20T02:23:49;100670.16;;;6.50;100.00
55540;BME280;41384;51.418;7.286;2023-02-20T02:34:58;100646.31;;;6.78;100.00
55540;BME280;41384;51.418;7.286;2023-02-20T02:37:49;100636.63;;;6.70;100.00
55540;BME280;41384;51.418;7.286;2023-02-20T02:40:27;100624.66;;;6.67;100.00
55540;BME280;41384;51.418;7.286;2023-02-20T02:43:15;100630.72;;;6.68;100.00
55540;BME280;41384;51.418;7.286;2023-02-20T02:45:50;100625.00;;;6.81;100.00
55540;BME280;41384;51.418;7.286;2023-02-20T02:48:48;100613.28;;;6.50;100.00
55540;BME280;41384;51.418;7.286;2023-02-20T02:51:28;100623.03;;;6.66;100.00
55540;BME280;41384;51.418;7.286;2023-02-20T02:54:14;100625.31;;;6.69;100.00
55540;BME280;41384;51.418;7.286;2023-02-20T02:56:43;100626.09;;;6.53;100.00
55540;BME280;41384;51.418;7.286;2023-02-20T02:59:16;100645.44;;;6.61;100.00
55540;BME280;41384;51.418;7.286;2023-02-20T03:01:48;100635.16;;;6.76;100.00
55540;BME280;41384;51.418;7.286;2023-02-20T03:04:15;100624.69;;;6.76;100.00
55540;BME280;41384;51.418;7.286;2023-02-20T03:06:50;100612.03;;;6.79;100.00
55540;BME280;41384;51.418;7.286;2023-02-20T03:09:29;100611.53;;;6.67;100.00
55540;BME280;41384;51.418;7.286;2023-02-20T03:11:57;100605.13;;;6.62;100.00
55540;BME280;41384;51.418;7.286;2023-02-20T03:14:31;100613.66;;;6.72;100.00
55540;BME280;41384;51.418;7.286;2023-02-20T03:17:41;100619.75;;;6.64;100.00
55540;BME280;41384;51.418;7.286;2023-02-20T03:20:11;100604.34;;;6.69;100.00
55540;BME280;41384;51.418;7.286;2023-02-20T03:22:43;100599.41;;;6.66;100.00
55540;BME280;41384;51.418;7.286;2023-02-20T03:25:18;100606.91;;;6.53;100.00
55540;BME280;41384;51.418;7.286;2023-02-20T03:30:34;100608.25;;;6.65;100.00
55540;BME280;41384;51.418;7.286;2023-02-20T03:33:09;100601.53;;;6.63;100.00
55540;BME280;41384;51.418;7.286;2023-02-20T03:35:56;100604.47;;;6.68;100.00
55540;BME280;41384;51.418;7.286;2023-02-20T03:38:45;100604.47;;;6.68;100.00
55540;BME280;41384;51.418;7.286;2023-02-20T03:41:30;100603.16;;;6.64;100.00
55540;BME280;41384;51.418;7.286;2023-02-20T03:44:17;100601.72;;;6.69;100.00
55540;BME280;41384;51.418;7.286;2023-02-20T03:46:45;100597.28;;;6.70;100.00
55540;BME280;41384;51.418;7.286;2023-02-20T03:49:16;100590.72;;;6.66;100.00
55540;BME280;41384;51.418;7.286;2023-02-20T03:51:43;100591.53;;;6.66;100.00
55540;BME280;41384;51.418;7.286;2023-02-20T03:54:09;100588.28;;;6.72;100.00
55540;BME280;41384;51.418;7.286;2023-02-20T03:56:46;100585.97;;;6.78;100.00
55540;BME280;41384;51.418;7.286;2023-02-20T03:59:21;100590.88;;;6.64;100.00
55540;BME280;41384;51.418;7.286;2023-02-20T04:01:49;100585.59;;;6.56;100.00
55540;BME280;41384;51.418;7.286;2023-02-20T04:04:20;100581.19;;;6.56;100.00
55540;BME280;41384;51.418;7.286;2023-02-20T04:06:49;100586.09;;;6.51;100.00
55540;BME280;41384;51.418;7.286;2023-02-20T04:09:20;100586.91;;;6.60;100.00
55540;BME280;41384;51.418;7.286;2023-02-20T04:11:51;100587.84;;;6.42;100.00
55540;BME280;41384;51.418;7.286;2023-02-20T04:14:20;100587.88;;;6.51;100.00
55540;BME280;41384;51.418;7.286;2023-02-20T04:16:49;100581.97;;;6.57;100.00
55540;BME280;41384;51.418;7.286;2023-02-20T04:19:16;100593.06;;;6.34;100.00
55540;BME280;41384;51.418;7.286;2023-02-20T04:21:53;100583.25;;;6.36;100.00
55540;BME280;41384;51.418;7.286;2023-02-20T04:26:55;100577.38;;;6.42;100.00
55540;BME280;41384;51.418;7.286;2023-02-20T04:29:21;100582.16;;;6.47;100.00
55540;BME280;41384;51.418;7.286;2023-02-20T04:31:46;100581.66;;;6.60;100.00
55540;BME280;41384;51.418;7.286;2023-02-20T04:34:11;100572.31;;;6.57;100.00
55540;BME280;41384;51.418;7.286;2023-02-20T04:36:37;100576.06;;;6.47;100.00
55540;BME280;41384;51.418;7.286;2023-02-20T04:39:02;100572.00;;;6.52;100.00
55540;BME280;41384;51.418;7.286;2023-02-20T04:41:28;100559.88;;;6.60;100.00
55540;BME280;41384;51.418;7.286;2023-02-20T04:43:53;100557.91;;;6.53;100.00
55540;BME280;41384;51.418;7.286;2023-02-20T04:46:38;100552.97;;;6.59;100.00
55540;BME280;41384;51.418;7.286;2023-02-20T04:49:03;100547.06;;;6.48;100.00
55540;BME280;41384;51.418;7.286;2023-02-20T04:51:29;100549.50;;;6.41;100.00
55540;BME280;41384;51.418;7.286;2023-02-20T04:53:54;100549.19;;;6.53;100.00
55540;BME280;41384;51.418;7.286;2023-02-20T04:56:19;100555.06;;;6.38;100.00
55540;BME280;41384;51.418;7.286;2023-02-20T04:58:47;100549.19;;;6.53;100.00
55540;BME280;41384;51.418;7.286;2023-02-20T05:01:14;100547.09;;;6.65;100.00
55540;BME280;41384;51.418;7.286;2023-02-20T05:03:39;100540.53;;;6.69;100.00
55540;BME280;41384;51.418;7.286;2023-02-20T05:06:05;100539.84;;;6.50;100.00
55540;BME280;41384;51.418;7.286;2023-02-20T05:08:30;100539.03;;;6.58;100.00
55540;BME280;41384;51.418;7.286;2023-02-20T05:10:56;100542.50;;;6.67;100.00
55540;BME280;41384;51.418;7.286;2023-02-20T05:13:21;100537.56;;;6.47;100.00
55540;BME280;41384;51.418;7.286;2023-02-20T05:15:46;100527.06;;;6.55;100.00
55540;BME280;41384;51.418;7.286;2023-02-20T05:18:12;100531.47;;;6.47;100.00
55540;BME280;41384;51.418;7.286;2023-02-20T05:20:37;100525.13;;;6.57;100.00
55540;BME280;41384;51.418;7.286;2023-02-20T05:23:31;100524.59;;;6.54;100.00
55540;BME280;41384;51.418;7.286;2023-02-20T05:25:56;100528.06;;;6.46;100.00
55540;BME280;41384;51.418;7.286;2023-02-20T05:28:22;100511.00;;;6.59;100.00
55540;BME280;41384;51.418;7.286;2023-02-20T05:30:47;100521.19;;;6.53;100.00
55540;BME280;41384;51.418;7.286;2023-02-20T05:33:12;100517.56;;;6.46;100.00
55540;BME280;41384;51.418;7.286;2023-02-20T05:35:37;100517.38;;;6.48;100.00
55540;BME280;41384;51.418;7.286;2023-02-20T05:38:04;100513.63;;;6.50;100.00
55540;BME280;41384;51.418;7.286;2023-02-20T05:40:29;100520.00;;;6.48;100.00
55540;BME280;41384;51.418;7.286;2023-02-20T05:42:56;100516.25;;;6.59;100.00
55540;BME280;41384;51.418;7.286;2023-02-20T05:45:21;100513.47;;;6.60;100.00
55540;BME280;41384;51.418;7.286;2023-02-20T05:47:46;100512.31;;;6.63;100.00
55540;BME280;41384;51.418;7.286;2023-02-20T05:50:12;100510.19;;;6.50;100.00
55540;BME280;41384;51.418;7.286;2023-02-20T05:52:37;100510.69;;;6.53;100.00
55540;BME280;41384;51.418;7.286;2023-02-20T05:55:02;100518.34;;;6.38;100.00
55540;BME280;41384;51.418;7.286;2023-02-20T05:57:28;100506.06;;;6.39;100.00
55540;BME280;41384;51.418;7.286;2023-02-20T05:59:53;100505.75;;;6.50;100.00
55540;BME280;41384;51.418;7.286;2023-02-20T06:02:18;100509.81;;;6.36;100.00
55540;BME280;41384;51.418;7.286;2023-02-20T06:04:44;100498.69;;;6.34;100.00
55540;BME280;41384;51.418;7.286;2023-02-20T06:07:09;100510.03;;;6.43;100.00
55540;BME280;41384;51.418;7.286;2023-02-20T06:09:34;100500.31;;;6.35;100.00
55540;BME280;41384;51.418;7.286;2023-02-20T06:12:00;100496.59;;;6.46;100.00
55540;BME280;41384;51.418;7.286;2023-02-20T06:14:25;100492.97;;;6.39;100.00
55540;BME280;41384;51.418;7.286;2023-02-20T06:16:51;100492.78;;;6.32;100.00
55540;BME280;41384;51.418;7.286;2023-02-20T06:19:22;100486.72;;;6.32;100.00
55540;BME280;41384;51.418;7.286;2023-02-20T06:21:49;100498.84;;;6.24;100.00
55540;BME280;41384;51.418;7.286;2023-02-20T06:24:18;100500.28;;;6.10;100.00
55540;BME280;41384;51.418;7.286;2023-02-20T06:26:44;100496.38;;;6.31;100.00
55540;BME280;41384;51.418;7.286;2023-02-20T06:29:10;100510.47;;;6.22;100.00
55540;BME280;41384;51.418;7.286;2023-02-20T06:31:36;100508.13;;;6.10;100.00
55540;BME280;41384;51.418;7.286;2023-02-20T06:34:02;100514.91;;;6.21;100.00
55540;BME280;41384;51.418;7.286;2023-02-20T06:36:30;100511.78;;;6.34;100.00
55540;BME280;41384;51.418;7.286;2023-02-20T06:38:59;100518.97;;;6.24;100.00
55540;BME280;41384;51.418;7.286;2023-02-20T06:41:27;100524.22;;;6.16;100.00
55540;BME280;41384;51.418;7.286;2023-02-20T06:43:55;100524.34;;;6.14;100.00
55540;BME280;41384;51.418;7.286;2023-02-20T06:46:21;100536.88;;;6.28;100.00
55540;BME280;41384;51.418;7.286;2023-02-20T06:48:49;100543.13;;;6.36;100.00
55540;BME280;41384;51.418;7.286;2023-02-20T06:51:16;100551.75;;;6.20;100.00
55540;BME280;41384;51.418;7.286;2023-02-20T06:53:42;100551.84;;;6.02;100.00
55540;BME280;41384;51.418;7.286;2023-02-20T06:56:09;100546.44;;;6.03;100.00
55540;BME280;41384;51.418;7.286;2023-02-20T06:58:35;100557.69;;;5.95;100.00
55540;BME280;41384;51.418;7.286;2023-02-20T07:01:00;100560.38;;;6.12;100.00
55540;BME280;41384;51.418;7.286;2023-02-20T07:03:26;100560.78;;;6.25;100.00
55540;BME280;41384;51.418;7.286;2023-02-20T07:05:51;100567.28;;;6.13;100.00
55540;BME280;41384;51.418;7.286;2023-02-20T07:08:16;100561.06;;;6.14;100.00
55540;BME280;41384;51.418;7.286;2023-02-20T07:10:42;100559.19;;;5.98;100.00
55540;BME280;41384;51.418;7.286;2023-02-20T07:13:07;100560.91;;;6.16;100.00
55540;BME280;41384;51.418;7.286;2023-02-20T07:15:32;100557.59;;;6.05;100.00
55540;BME280;41384;51.418;7.286;2023-02-20T07:17:57;100551.09;;;5.91;100.00
55540;BME280;41384;51.418;7.286;2023-02-20T07:20:26;100564.16;;;6.09;100.00
55540;BME280;41384;51.418;7.286;2023-02-20T07:22:52;100562.97;;;6.04;100.00
55540;BME280;41384;51.418;7.286;2023-02-20T07:25:20;100565.47;;;6.05;100.00
55540;BME280;41384;51.418;7.286;2023-02-20T07:27:45;100560.97;;;5.97;100.00
55540;BME280;41384;51.418;7.286;2023-02-20T07:30:11;100559.94;;;6.17;100.00
55540;BME280;41384;51.418;7.286;2023-02-20T07:32:36;100566.84;;;6.26;100.00
55540;BME280;41384;51.418;7.286;2023-02-20T07:35:02;100562.22;;;6.20;100.00
55540;BME280;41384;51.418;7.286;2023-02-20T07:37:27;100566.13;;;6.07;100.00
55540;BME280;41384;51.418;7.286;2023-02-20T07:39:53;100554.03;;;6.15;100.00
55540;BME280;41384;51.418;7.286;2023-02-20T07:42:18;100563.59;;;5.97;100.00
55540;BME280;41384;51.418;7.286;2023-02-20T07:44:43;100563.31;;;6.09;100.00
55540;BME280;41384;51.418;7.286;2023-02-20T07:47:13;100561.25;;;6.21;100.00
55540;BME280;41384;51.418;7.286;2023-02-20T07:49:38;100572.38;;;6.15;100.00
55540;BME280;41384;51.418;7.286;2023-02-20T07:52:03;100563.53;;;6.16;100.00
55540;BME280;41384;51.418;7.286;2023-02-20T07:54:28;100562.88;;;6.22;100.00
55540;BME280;41384;51.418;7.286;2023-02-20T07:56:54;100566.84;;;6.34;100.00
55540;BME280;41384;51.418;7.286;2023-02-20T07:59:20;100572.94;;;6.35;100.00
55540;BME280;41384;51.418;7.286;2023-02-20T08:01:46;100578.81;;;6.28;100.00
55540;BME280;41384;51.418;7.286;2023-02-20T08:04:11;100566.50;;;6.21;100.00
55540;BME280;41384;51.418;7.286;2023-02-20T08:06:36;100554.75;;;6.41;100.00
55540;BME280;41384;51.418;7.286;2023-02-20T08:09:02;100567.38;;;6.38;100.00
55540;BME280;41384;51.418;7.286;2023-02-20T08:11:27;100574.41;;;6.37;100.00
55540;BME280;41384;51.418;7.286;2023-02-20T08:13:52;100574.03;;;6.24;100.00
55540;BME280;41384;51.418;7.286;2023-02-20T08:16:20;100575.56;;;6.43;100.00
55540;BME280;41384;51.418;7.286;2023-02-20T08:18:46;100574.91;;;6.33;100.00
55540;BME280;41384;51.418;7.286;2023-02-20T08:21:11;100567.38;;;6.38;100.00
55540;BME280;41384;51.418;7.286;2023-02-20T08:23:36;100562.94;;;6.47;100.00
55540;BME280;41384;51.418;7.286;2023-02-20T08:26:03;100566.75;;;6.52;100.00
55540;BME280;41384;51.418;7.286;2023-02-20T08:28:28;100573.75;;;6.35;100.00
55540;BME280;41384;51.418;7.286;2023-02-20T08:30:54;100574.91;;;6.41;100.00
55540;BME280;41384;51.418;7.286;2023-02-20T08:33:19;100566.38;;;6.31;100.00
55540;BME280;41384;51.418;7.286;2023-02-20T08:35:44;100574.72;;;6.34;100.00
55540;BME280;41384;51.418;7.286;2023-02-20T08:38:30;100562.16;;;6.46;100.00
55540;BME280;41384;51.418;7.286;2023-02-20T08:40:58;100556.03;;;6.37;100.00
55540;BME280;41384;51.418;7.286;2023-02-20T08:43:24;100551.47;;;6.39;100.00
55540;BME280;41384;51.418;7.286;2023-02-20T08:45:50;100558.03;;;6.43;100.00
55540;BME280;41384;51.418;7.286;2023-02-20T08:48:15;100556.88;;;6.38;100.00
55540;BME280;41384;51.418;7.286;2023-02-20T08:50:41;100542.81;;;6.47;100.00
55540;BME280;41384;51.418;7.286;2023-02-20T08:53:06;100546.56;;;6.53;100.00
55540;BME280;41384;51.418;7.286;2023-02-20T08:55:32;100547.41;;;6.53;100.00
55540;BME280;41384;51.418;7.286;2023-02-20T08:57:57;100548.72;;;6.49;100.00
55540;BME280;41384;51.418;7.286;2023-02-20T09:00:22;100536.41;;;6.50;100.00
55540;BME280;41384;51.418;7.286;2023-02-20T09:02:48;100541.66;;;6.58;100.00
55540;BME280;41384;51.418;7.286;2023-02-20T09:05:14;100545.63;;;6.70;100.00
55540;BME280;41384;51.418;7.286;2023-02-20T09:07:40;100540.00;;;6.57;100.00
55540;BME280;41384;51.418;7.286;2023-02-20T09:10:05;100542.63;;;6.49;100.00
55540;BME280;41384;51.418;7.286;2023-02-20T09:12:31;100536.72;;;6.55;100.00
55540;BME280;41384;51.418;7.286;2023-02-20T09:14:56;100545.09;;;6.50;100.00
55540;BME280;41384;51.418;7.286;2023-02-20T09:17:25;100525.59;;;6.53;100.00
55540;BME280;41384;51.418;7.286;2023-02-20T09:19:50;100542.16;;;6.45;100.00
55540;BME280;41384;51.418;7.286;2023-02-20T09:22:15;100544.91;;;6.35;100.00
55540;BME280;41384;51.418;7.286;2023-02-20T09:24:46;100555.75;;;6.57;100.00
55540;BME280;41384;51.418;7.286;2023-02-20T09:27:11;100550.84;;;6.62;100.00
55540;BME280;41384;51.418;7.286;2023-02-20T09:29:36;100546.06;;;6.41;100.00
55540;BME280;41384;51.418;7.286;2023-02-20T09:32:05;100534.97;;;6.64;100.00
55540;BME280;41384;51.418;7.286;2023-02-20T09:34:30;100548.38;;;6.44;100.00
55540;BME280;41384;51.418;7.286;2023-02-20T09:36:55;100541.03;;;6.64;100.00
55540;BME280;41384;51.418;7.286;2023-02-20T09:39:20;100558.38;;;6.49;100.00
55540;BME280;41384;51.418;7.286;2023-02-20T09:44:49;100543.47;;;6.66;100.00
55540;BME280;41384;51.418;7.286;2023-02-20T09:47:41;100532.78;;;6.42;100.00
55540;BME280;41384;51.418;7.286;2023-02-20T09:50:17;100531.69;;;6.62;100.00
55540;BME280;41384;51.418;7.286;2023-02-20T09:52:52;100522.63;;;6.56;100.00
55540;BME280;41384;51.418;7.286;2023-02-20T09:55:24;100524.13;;;6.50;100.00
55540;BME280;41384;51.418;7.286;2023-02-20T09:57:54;100530.50;;;6.48;100.00
55540;BME280;41384;51.418;7.286;2023-02-20T10:00:27;100516.78;;;6.70;100.00
55540;BME280;41384;51.418;7.286;2023-02-20T10:03:22;100524.47;;;6.72;100.00
55540;BME280;41384;51.418;7.286;2023-02-20T10:05:45;100526.72;;;6.42;100.00
55540;BME280;41384;51.418;7.286;2023-02-20T10:08:15;100526.75;;;6.50;100.00
55540;BME280;41384;51.418;7.286;2023-02-20T10:10:42;100529.50;;;6.40;100.00
55540;BME280;41384;51.418;7.286;2023-02-20T10:13:33;100531.81;;;6.60;100.00
55540;BME280;41384;51.418;7.286;2023-02-20T10:16:23;100532.31;;;6.55;100.00
55540;BME280;41384;51.418;7.286;2023-02-20T10:19:07;100535.94;;;6.63;100.00
55540;BME280;41384;51.418;7.286;2023-02-20T10:24:22;100522.50;;;6.82;100.00
55540;BME280;41384;51.418;7.286;2023-02-20T10:27:03;100511.69;;;6.77;100.00
55540;BME280;41384;51.418;7.286;2023-02-20T10:29:39;100500.19;;;6.70;100.00
55540;BME280;41384;51.418;7.286;2023-02-20T10:32:06;100498.09;;;6.74;100.00
55540;BME280;41384;51.418;7.286;2023-02-20T10:34:39;100489.69;;;6.78;100.00
55540;BME280;41384;51.418;7.286;2023-02-20T10:37:13;100487.59;;;6.65;100.00
55540;BME280;41384;51.418;7.286;2023-02-20T10:39:48;100489.22;;;6.91;100.00
55540;BME280;41384;51.418;7.286;2023-02-20T10:42:27;100487.91;;;6.87;100.00
55540;BME280;41384;51.418;7.286;2023-02-20T10:45:07;100497.91;;;6.83;100.00
55540;BME280;41384;51.418;7.286;2023-02-20T10:47:45;100498.56;;;6.85;100.00
55540;BME280;41384;51.418;7.286;2023-02-20T10:50:19;100498.72;;;7.09;100.00
55540;BME280;41384;51.418;7.286;2023-02-20T10:52:51;100502.66;;;7.05;100.00
55540;BME280;41384;51.418;7.286;2023-02-20T10:55:26;100499.53;;;7.09;100.00
55540;BME280;41384;51.418;7.286;2023-02-20T10:57:59;100504.91;;;7.24;100.00
55540;BME280;41384;51.418;7.286;2023-02-20T11:00:45;100500.97;;;7.20;100.00
55540;BME280;41384;51.418;7.286;2023-02-20T11:03:22;100503.47;;;7.13;100.00
55540;BME280;41384;51.418;7.286;2023-02-20T11:05:52;100488.69;;;7.04;100.00
55540;BME280;41384;51.418;7.286;2023-02-20T11:08:18;100480.81;;;7.12;100.00
55540;BME280;41384;51.418;7.286;2023-02-20T11:10:47;100461.59;;;7.20;100.00
55540;BME280;41384;51.418;7.286;2023-02-20T11:13:17;100448.31;;;7.22;100.00
55540;BME280;41384;51.418;7.286;2023-02-20T11:15:44;100429.91;;;7.30;100.00
55540;BME280;41384;51.418;7.286;2023-02-20T11:18:22;100434.00;;;7.33;100.00
55540;BME280;41384;51.418;7.286;2023-02-20T11:20:50;100431.34;;;7.41;100.00
55540;BME280;41384;51.418;7.286;2023-02-20T11:26:17;100444.13;;;7.52;100.00
55540;BME280;41384;51.418;7.286;2023-02-20T11:29:01;100452.84;;;7.44;100.00
55540;BME280;41384;51.418;7.286;2023-02-20T11:31:27;100463.16;;;7.54;100.00
55540;BME280;41384;51.418;7.286;2023-02-20T11:33:54;100466.13;;;7.43;100.00
55540;BME280;41384;51.418;7.286;2023-02-20T11:36:23;100461.69;;;7.43;100.00
55540;BME280;41384;51.418;7.286;2023-02-20T11:38:56;100450.72;;;7.32;100.00
55540;BME280;41384;51.418;7.286;2023-02-20T11:46:39;100448.78;;;7.25;100.00
55540;BME280;41384;51.418;7.286;2023-02-20T11:49:09;100463.22;;;7.21;100.00
55540;BME280;41384;51.418;7.286;2023-02-20T11:51:41;100458.81;;;7.22;100.00
55540;BME280;41384;51.418;7.286;2023-02-20T11:54:23;100461.91;;;7.25;100.00
55540;BME280;41384;51.418;7.286;2023-02-20T11:59:47;100469.34;;;7.13;100.00
55540;BME280;41384;51.418;7.286;2023-02-20T12:04:43;100466.56;;;7.07;100.00
55540;BME280;41384;51.418;7.286;2023-02-20T12:07:26;100454.72;;;7.19;100.00
55540;BME280;41384;51.418;7.286;2023-02-20T12:09:57;100448.13;;;7.23;100.00
55540;BME280;41384;51.418;7.286;2023-02-20T12:12:27;100449.63;;;7.26;100.00
55540;BME280;41384;51.418;7.286;2023-02-20T12:14:54;100467.44;;;7.39;100.00
55540;BME280;41384;51.418;7.286;2023-02-20T12:17:39;100452.00;;;7.44;100.00
55540;BME280;41384;51.418;7.286;2023-02-20T12:20:21;100464.53;;;7.25;100.00
55540;BME280;41384;51.418;7.286;2023-02-20T12:23:03;100466.50;;;7.32;100.00
55540;BME280;41384;51.418;7.286;2023-02-20T12:28:38;100436.16;;;7.29;100.00
55540;BME280;41384;51.418;7.286;2023-02-20T12:31:30;100465.84;;;7.29;100.00
55540;BME280;41384;51.418;7.286;2023-02-20T12:36:42;100448.78;;;7.25;100.00
55540;BME280;41384;51.418;7.286;2023-02-20T12:39:42;100454.31;;;7.39;100.00
55540;BME280;41384;51.418;7.286;2023-02-20T12:42:40;100461.41;;;7.30;100.00
55540;BME280;41384;51.418;7.286;2023-02-20T12:45:38;100451.53;;;7.40;100.00
55540;BME280;41384;51.418;7.286;2023-02-20T12:48:12;100438.59;;;7.30;100.00
55540;BME280;41384;51.418;7.286;2023-02-20T12:50:45;100436.25;;;7.44;100.00
55540;BME280;41384;51.418;7.286;2023-02-20T12:53:34;100435.16;;;7.30;100.00
55540;BME280;41384;51.418;7.286;2023-02-20T12:56:21;100408.69;;;7.40;100.00
55540;BME280;41384;51.418;7.286;2023-02-20T13:01:45;100391.31;;;7.30;100.00
55540;BME280;41384;51.418;7.286;2023-02-20T13:04:26;100407.34;;;7.44;100.00
55540;BME280;41384;51.418;7.286;2023-02-20T13:07:05;100396.16;;;7.50;100.00
55540;BME280;41384;51.418;7.286;2023-02-20T13:09:38;100387.13;;;7.53;100.00
55540;BME280;41384;51.418;7.286;2023-02-20T13:12:10;100382.75;;;7.37;100.00
55540;BME280;41384;51.418;7.286;2023-02-20T13:14:47;100387.63;;;7.48;100.00
55540;BME280;41384;51.418;7.286;2023-02-20T13:17:41;100367.53;;;7.32;100.00
55540;BME280;41384;51.418;7.286;2023-02-20T13:20:25;100374.88;;;7.37;100.00
55540;BME280;41384;51.418;7.286;2023-02-20T13:25:46;100352.22;;;7.36;100.00
55540;BME280;41384;51.418;7.286;2023-02-20T13:30:38;100336.66;;;7.34;100.00
55540;BME280;41384;51.418;7.286;2023-02-20T13:33:27;100339.75;;;7.38;100.00
55540;BME280;41384;51.418;7.286;2023-02-20T13:35:55;100366.50;;;7.41;100.00
55540;BME280;41384;51.418;7.286;2023-02-20T13:38:22;100352.75;;;7.31;100.00
55540;BME280;41384;51.418;7.286;2023-02-20T13:45:48;100347.38;;;7.56;100.00
55540;BME280;41384;51.418;7.286;2023-02-20T13:53:50;100360.72;;;7.46;100.00
55540;BME280;41384;51.418;7.286;2023-02-20T13:56:16;100363.34;;;7.46;100.00
55540;BME280;41384;51.418;7.286;2023-02-20T13:58:43;100365.03;;;7.39;100.00
55540;BME280;41384;51.418;7.286;2023-02-20T14:01:08;100357.53;;;7.59;100.00
55540;BME280;41384;51.418;7.286;2023-02-20T14:03:34;100375.84;;;7.44;100.00